sensor_id;sensor_type;location;lat;lon;timestamp;P1;durP1;ratioP1;P2;durP2;ratioP2
65477;SDS011;53678;39.642;22.430;2022-11-20T00:01:05;3.28;;;1.42;;
65477;SDS011;53678;39.642;22.430;2022-11-20T00:03:32;2.72;;;1.30;;
65477;SDS011;53678;39.642;22.430;2022-11-20T00:06:02;2.78;;;1.30;;
65477;SDS011;53678;39.642;22.430;2022-11-20T00:08:29;2.53;;;1.40;;
65477;SDS011;53678;39.642;22.430;2022-11-20T00:10:55;2.70;;;1.20;;
65477;SDS011;53678;39.642;22.430;2022-11-20T00:13:21;2.92;;;1.17;;
65477;SDS011;53678;39.642;22.430;2022-11-20T00:15:47;3.92;;;1.20;;
65477;SDS011;53678;39.642;22.430;2022-11-20T00:18:13;3.75;;;1.27;;
65477;SDS011;53678;39.642;22.430;2022-11-20T00:20:39;4.40;;;1.10;;
65477;SDS011;53678;39.642;22.430;2022-11-20T00:23:05;3.58;;;1.35;;
65477;SDS011;53678;39.642;22.430;2022-11-20T00:25:33;2.42;;;1.10;;
65477;SDS011;53678;39.642;22.430;2022-11-20T00:28:00;3.22;;;1.10;;
65477;SDS011;53678;39.642;22.430;2022-11-20T00:30:25;2.88;;;1.40;;
65477;SDS011;53678;39.642;22.430;2022-11-20T00:32:51;3.90;;;1.50;;
65477;SDS011;53678;39.642;22.430;2022-11-20T00:35:17;2.40;;;1.23;;
65477;SDS011;53678;39.642;22.430;2022-11-20T00:37:44;2.88;;;1.10;;
65477;SDS011;53678;39.642;22.430;2022-11-20T00:40:10;4.25;;;1.35;;
65477;SDS011;53678;39.642;22.430;2022-11-20T00:42:36;2.28;;;1.20;;
65477;SDS011;53678;39.642;22.430;2022-11-20T00:45:02;2.33;;;1.52;;
65477;SDS011;53678;39.642;22.430;2022-11-20T00:47:28;4.32;;;1.60;;
65477;SDS011;53678;39.642;22.430;2022-11-20T00:49:54;2.38;;;1.30;;
65477;SDS011;53678;39.642;22.430;2022-11-20T00:52:20;2.63;;;1.20;;
65477;SDS011;53678;39.642;22.430;2022-11-20T00:54:46;3.20;;;1.50;;
65477;SDS011;53678;39.642;22.430;2022-11-20T00:57:12;5.22;;;1.40;;
65477;SDS011;53678;39.642;22.430;2022-11-20T00:59:38;4.38;;;1.20;;
65477;SDS011;53678;39.642;22.430;2022-11-20T01:02:03;5.80;;;1.10;;
65477;SDS011;53678;39.642;22.430;2022-11-20T01:04:29;2.97;;;1.38;;
65477;SDS011;53678;39.642;22.430;2022-11-20T01:06:55;3.20;;;1.40;;
65477;SDS011;53678;39.642;22.430;2022-11-20T01:09:21;2.60;;;1.30;;
65477;SDS011;53678;39.642;22.430;2022-11-20T01:11:47;1.90;;;0.90;;
65477;SDS011;53678;39.642;22.430;2022-11-20T01:14:14;1.88;;;0.90;;
65477;SDS011;53678;39.642;22.430;2022-11-20T01:16:43;1.92;;;0.80;;
65477;SDS011;53678;39.642;22.430;2022-11-20T01:19:12;1.63;;;0.90;;
65477;SDS011;53678;39.642;22.430;2022-11-20T01:21:41;1.83;;;1.02;;
65477;SDS011;53678;39.642;22.430;2022-11-20T01:24:10;2.78;;;1.23;;
65477;SDS011;53678;39.642;22.430;2022-11-20T01:26:38;3.28;;;0.93;;
65477;SDS011;53678;39.642;22.430;2022-11-20T01:29:06;5.32;;;1.30;;
65477;SDS011;53678;39.642;22.430;2022-11-20T01:31:33;6.65;;;1.20;;
65477;SDS011;53678;39.642;22.430;2022-11-20T01:34:02;4.03;;;1.10;;
65477;SDS011;53678;39.642;22.430;2022-11-20T01:36:33;1.88;;;1.05;;
65477;SDS011;53678;39.642;22.430;2022-11-20T01:39:02;6.28;;;1.80;;
65477;SDS011;53678;39.642;22.430;2022-11-20T01:41:30;5.32;;;1.30;;
65477;SDS011;53678;39.642;22.430;2022-11-20T01:44:17;7.45;;;1.23;;
65477;SDS011;53678;39.642;22.430;2022-11-20T01:47:01;4.72;;;1.17;;
65477;SDS011;53678;39.642;22.430;2022-11-20T01:49:39;9.68;;;1.65;;
65477;SDS011;53678;39.642;22.430;2022-11-20T01:52:15;2.97;;;1.13;;
65477;SDS011;53678;39.642;22.430;2022-11-20T01:54:49;3.03;;;1.20;;
65477;SDS011;53678;39.642;22.430;2022-11-20T01:57:19;3.58;;;1.52;;
65477;SDS011;53678;39.642;22.430;2022-11-20T01:59:51;3.42;;;1.40;;
65477;SDS011;53678;39.642;22.430;2022-11-20T02:02:20;4.32;;;1.60;;
65477;SDS011;53678;39.642;22.430;2022-11-20T02:04:47;6.90;;;1.40;;
65477;SDS011;53678;39.642;22.430;2022-11-20T02:07:14;13.07;;;2.08;;
65477;SDS011;53678;39.642;22.430;2022-11-20T02:09:41;13.70;;;1.90;;
65477;SDS011;53678;39.642;22.430;2022-11-20T02:12:07;7.85;;;1.90;;
65477;SDS011;53678;39.642;22.430;2022-11-20T02:14:53;16.77;;;2.50;;
65477;SDS011;53678;39.642;22.430;2022-11-20T02:17:18;16.77;;;2.95;;
65477;SDS011;53678;39.642;22.430;2022-11-20T02:19:45;21.40;;;2.50;;
65477;SDS011;53678;39.642;22.430;2022-11-20T02:22:13;13.98;;;2.30;;
65477;SDS011;53678;39.642;22.430;2022-11-20T02:24:42;13.77;;;3.13;;
65477;SDS011;53678;39.642;22.430;2022-11-20T02:27:14;10.10;;;2.28;;
65477;SDS011;53678;39.642;22.430;2022-11-20T02:32:23;9.32;;;1.70;;
65477;SDS011;53678;39.642;22.430;2022-11-20T02:34:53;16.98;;;2.05;;
65477;SDS011;53678;39.642;22.430;2022-11-20T02:37:19;8.88;;;1.60;;
65477;SDS011;53678;39.642;22.430;2022-11-20T02:39:47;10.40;;;1.98;;
65477;SDS011;53678;39.642;22.430;2022-11-20T02:42:14;10.93;;;2.05;;
65477;SDS011;53678;39.642;22.430;2022-11-20T02:44:40;7.78;;;1.52;;
65477;SDS011;53678;39.642;22.430;2022-11-20T02:47:07;12.85;;;1.98;;
65477;SDS011;53678;39.642;22.430;2022-11-20T02:49:33;6.05;;;1.90;;
65477;SDS011;53678;39.642;22.430;2022-11-20T02:51:59;13.35;;;2.92;;
65477;SDS011;53678;39.642;22.430;2022-11-20T02:54:25;7.35;;;1.95;;
65477;SDS011;53678;39.642;22.430;2022-11-20T02:56:51;13.55;;;2.38;;
65477;SDS011;53678;39.642;22.430;2022-11-20T02:59:17;5.18;;;1.50;;
65477;SDS011;53678;39.642;22.430;2022-11-20T03:01:43;14.82;;;2.08;;
65477;SDS011;53678;39.642;22.430;2022-11-20T03:04:09;7.82;;;1.77;;
65477;SDS011;53678;39.642;22.430;2022-11-20T03:06:35;8.90;;;1.90;;
65477;SDS011;53678;39.642;22.430;2022-11-20T03:09:00;15.82;;;2.10;;
65477;SDS011;53678;39.642;22.430;2022-11-20T03:11:27;16.05;;;2.20;;
65477;SDS011;53678;39.642;22.430;2022-11-20T03:13:53;11.25;;;2.28;;
65477;SDS011;53678;39.642;22.430;2022-11-20T03:16:20;9.35;;;2.42;;
65477;SDS011;53678;39.642;22.430;2022-11-20T03:18:47;8.88;;;2.25;;
65477;SDS011;53678;39.642;22.430;2022-11-20T03:21:14;13.32;;;1.85;;
65477;SDS011;53678;39.642;22.430;2022-11-20T03:23:41;13.10;;;2.08;;
65477;SDS011;53678;39.642;22.430;2022-11-20T03:26:11;13.23;;;2.83;;
65477;SDS011;53678;39.642;22.430;2022-11-20T03:28:45;8.07;;;1.55;;
65477;SDS011;53678;39.642;22.430;2022-11-20T03:31:13;13.23;;;2.20;;
65477;SDS011;53678;39.642;22.430;2022-11-20T03:33:40;6.80;;;1.67;;
65477;SDS011;53678;39.642;22.430;2022-11-20T03:36:11;4.90;;;1.65;;
65477;SDS011;53678;39.642;22.430;2022-11-20T03:38:39;6.47;;;1.60;;
65477;SDS011;53678;39.642;22.430;2022-11-20T03:41:07;7.97;;;1.67;;
65477;SDS011;53678;39.642;22.430;2022-11-20T03:43:34;9.25;;;2.05;;
65477;SDS011;53678;39.642;22.430;2022-11-20T03:46:00;5.05;;;1.52;;
65477;SDS011;53678;39.642;22.430;2022-11-20T03:48:27;7.10;;;1.83;;
65477;SDS011;53678;39.642;22.430;2022-11-20T03:50:53;4.60;;;1.25;;
65477;SDS011;53678;39.642;22.430;2022-11-20T03:53:31;7.93;;;1.60;;
65477;SDS011;53678;39.642;22.430;2022-11-20T03:55:57;6.63;;;1.73;;
65477;SDS011;53678;39.642;22.430;2022-11-20T03:58:23;7.10;;;1.80;;
65477;SDS011;53678;39.642;22.430;2022-11-20T04:00:49;4.78;;;1.63;;
65477;SDS011;53678;39.642;22.430;2022-11-20T04:03:15;5.72;;;2.03;;
65477;SDS011;53678;39.642;22.430;2022-11-20T04:05:40;6.65;;;1.83;;
65477;SDS011;53678;39.642;22.430;2022-11-20T04:08:06;8.13;;;1.70;;
65477;SDS011;53678;39.642;22.430;2022-11-20T04:10:32;10.93;;;2.25;;
65477;SDS011;53678;39.642;22.430;2022-11-20T04:12:58;6.82;;;1.98;;
65477;SDS011;53678;39.642;22.430;2022-11-20T04:15:24;12.45;;;2.97;;
65477;SDS011;53678;39.642;22.430;2022-11-20T04:17:50;12.23;;;2.47;;
65477;SDS011;53678;39.642;22.430;2022-11-20T04:20:16;11.70;;;2.28;;
65477;SDS011;53678;39.642;22.430;2022-11-20T04:22:42;13.50;;;2.42;;
65477;SDS011;53678;39.642;22.430;2022-11-20T04:25:08;22.75;;;4.25;;
65477;SDS011;53678;39.642;22.430;2022-11-20T04:27:34;12.15;;;2.30;;
65477;SDS011;53678;39.642;22.430;2022-11-20T04:30:00;16.85;;;2.38;;
65477;SDS011;53678;39.642;22.430;2022-11-20T04:32:25;10.52;;;2.53;;
65477;SDS011;53678;39.642;22.430;2022-11-20T04:34:51;7.63;;;2.05;;
65477;SDS011;53678;39.642;22.430;2022-11-20T04:37:17;7.65;;;2.33;;
65477;SDS011;53678;39.642;22.430;2022-11-20T04:39:43;6.93;;;2.08;;
65477;SDS011;53678;39.642;22.430;2022-11-20T04:42:09;7.25;;;2.50;;
65477;SDS011;53678;39.642;22.430;2022-11-20T04:44:54;6.45;;;2.40;;
65477;SDS011;53678;39.642;22.430;2022-11-20T04:47:20;10.05;;;2.60;;
65477;SDS011;53678;39.642;22.430;2022-11-20T04:49:46;10.98;;;2.72;;
65477;SDS011;53678;39.642;22.430;2022-11-20T04:52:12;13.38;;;2.30;;
65477;SDS011;53678;39.642;22.430;2022-11-20T04:54:38;10.55;;;2.42;;
65477;SDS011;53678;39.642;22.430;2022-11-20T04:57:04;11.70;;;2.38;;
65477;SDS011;53678;39.642;22.430;2022-11-20T04:59:30;12.27;;;3.08;;
65477;SDS011;53678;39.642;22.430;2022-11-20T05:01:56;7.45;;;2.58;;
65477;SDS011;53678;39.642;22.430;2022-11-20T05:04:22;9.25;;;2.40;;
65477;SDS011;53678;39.642;22.430;2022-11-20T05:06:49;12.13;;;2.42;;
65477;SDS011;53678;39.642;22.430;2022-11-20T05:09:16;6.82;;;2.40;;
65477;SDS011;53678;39.642;22.430;2022-11-20T05:11:41;7.90;;;2.00;;
65477;SDS011;53678;39.642;22.430;2022-11-20T05:14:07;8.70;;;2.42;;
65477;SDS011;53678;39.642;22.430;2022-11-20T05:16:33;7.22;;;2.10;;
65477;SDS011;53678;39.642;22.430;2022-11-20T05:19:01;5.40;;;2.33;;
65477;SDS011;53678;39.642;22.430;2022-11-20T05:21:29;9.65;;;2.40;;
65477;SDS011;53678;39.642;22.430;2022-11-20T05:23:57;5.07;;;1.95;;
65477;SDS011;53678;39.642;22.430;2022-11-20T05:26:23;6.30;;;2.30;;
65477;SDS011;53678;39.642;22.430;2022-11-20T05:28:49;5.13;;;2.22;;
65477;SDS011;53678;39.642;22.430;2022-11-20T05:31:20;9.27;;;2.55;;
65477;SDS011;53678;39.642;22.430;2022-11-20T05:33:48;6.78;;;2.35;;
65477;SDS011;53678;39.642;22.430;2022-11-20T05:36:14;8.38;;;2.38;;
65477;SDS011;53678;39.642;22.430;2022-11-20T05:38:41;6.30;;;2.22;;
65477;SDS011;53678;39.642;22.430;2022-11-20T05:41:09;10.57;;;2.58;;
65477;SDS011;53678;39.642;22.430;2022-11-20T05:43:40;5.72;;;2.70;;
65477;SDS011;53678;39.642;22.430;2022-11-20T05:46:08;7.88;;;2.45;;
65477;SDS011;53678;39.642;22.430;2022-11-20T05:48:36;11.52;;;2.28;;
65477;SDS011;53678;39.642;22.430;2022-11-20T05:51:03;5.93;;;2.22;;
65477;SDS011;53678;39.642;22.430;2022-11-20T05:53:31;5.95;;;2.28;;
65477;SDS011;53678;39.642;22.430;2022-11-20T05:55:59;8.55;;;2.30;;
65477;SDS011;53678;39.642;22.430;2022-11-20T05:58:27;6.65;;;2.75;;
65477;SDS011;53678;39.642;22.430;2022-11-20T06:00:53;6.82;;;2.95;;
65477;SDS011;53678;39.642;22.430;2022-11-20T06:03:19;8.27;;;2.25;;
65477;SDS011;53678;39.642;22.430;2022-11-20T06:05:45;7.85;;;2.38;;
65477;SDS011;53678;39.642;22.430;2022-11-20T06:08:12;12.00;;;2.90;;
65477;SDS011;53678;39.642;22.430;2022-11-20T06:10:38;8.90;;;2.70;;
65477;SDS011;53678;39.642;22.430;2022-11-20T06:13:04;6.78;;;2.80;;
65477;SDS011;53678;39.642;22.430;2022-11-20T06:15:30;12.82;;;3.20;;
65477;SDS011;53678;39.642;22.430;2022-11-20T06:17:56;13.43;;;2.80;;
65477;SDS011;53678;39.642;22.430;2022-11-20T06:20:22;12.82;;;3.17;;
65477;SDS011;53678;39.642;22.430;2022-11-20T06:22:47;14.60;;;3.20;;
65477;SDS011;53678;39.642;22.430;2022-11-20T06:25:14;8.75;;;3.03;;
65477;SDS011;53678;39.642;22.430;2022-11-20T06:27:40;7.93;;;2.97;;
65477;SDS011;53678;39.642;22.430;2022-11-20T06:30:06;11.32;;;2.85;;
65477;SDS011;53678;39.642;22.430;2022-11-20T06:32:33;8.95;;;3.00;;
65477;SDS011;53678;39.642;22.430;2022-11-20T06:34:59;11.50;;;2.70;;
65477;SDS011;53678;39.642;22.430;2022-11-20T06:37:25;15.77;;;2.80;;
65477;SDS011;53678;39.642;22.430;2022-11-20T06:39:51;10.50;;;3.35;;
65477;SDS011;53678;39.642;22.430;2022-11-20T06:42:16;7.63;;;2.90;;
65477;SDS011;53678;39.642;22.430;2022-11-20T06:44:42;10.15;;;3.28;;
65477;SDS011;53678;39.642;22.430;2022-11-20T06:47:08;11.85;;;2.60;;
65477;SDS011;53678;39.642;22.430;2022-11-20T06:49:34;12.60;;;2.78;;
65477;SDS011;53678;39.642;22.430;2022-11-20T06:52:02;13.98;;;3.10;;
65477;SDS011;53678;39.642;22.430;2022-11-20T06:54:28;11.00;;;2.90;;
65477;SDS011;53678;39.642;22.430;2022-11-20T06:56:54;11.50;;;3.45;;
65477;SDS011;53678;39.642;22.430;2022-11-20T06:59:20;18.08;;;4.18;;
65477;SDS011;53678;39.642;22.430;2022-11-20T07:01:46;12.65;;;3.20;;
65477;SDS011;53678;39.642;22.430;2022-11-20T07:04:12;15.48;;;2.72;;
65477;SDS011;53678;39.642;22.430;2022-11-20T07:06:38;19.05;;;4.10;;
65477;SDS011;53678;39.642;22.430;2022-11-20T07:09:04;15.80;;;3.22;;
65477;SDS011;53678;39.642;22.430;2022-11-20T07:11:30;13.60;;;2.53;;
65477;SDS011;53678;39.642;22.430;2022-11-20T07:13:56;15.65;;;3.40;;
65477;SDS011;53678;39.642;22.430;2022-11-20T07:16:22;16.83;;;3.85;;
65477;SDS011;53678;39.642;22.430;2022-11-20T07:18:48;18.13;;;3.58;;
65477;SDS011;53678;39.642;22.430;2022-11-20T07:21:14;15.35;;;3.42;;
65477;SDS011;53678;39.642;22.430;2022-11-20T07:23:41;15.30;;;3.13;;
65477;SDS011;53678;39.642;22.430;2022-11-20T07:26:08;16.50;;;4.55;;
65477;SDS011;53678;39.642;22.430;2022-11-20T07:28:35;24.27;;;4.05;;
65477;SDS011;53678;39.642;22.430;2022-11-20T07:31:01;16.08;;;3.40;;
65477;SDS011;53678;39.642;22.430;2022-11-20T07:33:28;16.38;;;3.13;;
65477;SDS011;53678;39.642;22.430;2022-11-20T07:35:54;23.30;;;3.78;;
65477;SDS011;53678;39.642;22.430;2022-11-20T07:38:20;17.70;;;3.78;;
65477;SDS011;53678;39.642;22.430;2022-11-20T07:40:47;17.08;;;3.60;;
65477;SDS011;53678;39.642;22.430;2022-11-20T07:43:12;23.55;;;4.13;;
65477;SDS011;53678;39.642;22.430;2022-11-20T07:45:39;22.85;;;3.70;;
65477;SDS011;53678;39.642;22.430;2022-11-20T07:48:05;20.90;;;4.15;;
65477;SDS011;53678;39.642;22.430;2022-11-20T07:50:31;19.80;;;3.55;;
65477;SDS011;53678;39.642;22.430;2022-11-20T07:53:00;17.17;;;3.17;;
65477;SDS011;53678;39.642;22.430;2022-11-20T07:55:30;18.70;;;4.03;;
65477;SDS011;53678;39.642;22.430;2022-11-20T07:57:56;21.58;;;3.55;;
65477;SDS011;53678;39.642;22.430;2022-11-20T08:00:22;17.02;;;4.28;;
65477;SDS011;53678;39.642;22.430;2022-11-20T08:02:48;25.92;;;5.10;;
65477;SDS011;53678;39.642;22.430;2022-11-20T08:05:15;19.42;;;4.57;;
65477;SDS011;53678;39.642;22.430;2022-11-20T08:07:41;16.67;;;4.22;;
65477;SDS011;53678;39.642;22.430;2022-11-20T08:10:09;23.95;;;4.53;;
65477;SDS011;53678;39.642;22.430;2022-11-20T08:12:47;22.70;;;3.85;;
65477;SDS011;53678;39.642;22.430;2022-11-20T08:15:33;20.45;;;4.32;;
65477;SDS011;53678;39.642;22.430;2022-11-20T08:18:00;18.60;;;3.78;;
65477;SDS011;53678;39.642;22.430;2022-11-20T08:20:29;19.83;;;4.50;;
65477;SDS011;53678;39.642;22.430;2022-11-20T08:23:03;22.15;;;4.15;;
65477;SDS011;53678;39.642;22.430;2022-11-20T08:25:31;23.42;;;3.95;;
65477;SDS011;53678;39.642;22.430;2022-11-20T08:27:59;23.40;;;5.70;;
65477;SDS011;53678;39.642;22.430;2022-11-20T08:30:26;19.23;;;4.78;;
65477;SDS011;53678;39.642;22.430;2022-11-20T08:32:52;22.88;;;4.40;;
65477;SDS011;53678;39.642;22.430;2022-11-20T08:35:19;27.85;;;5.95;;
65477;SDS011;53678;39.642;22.430;2022-11-20T08:37:46;22.98;;;5.20;;
65477;SDS011;53678;39.642;22.430;2022-11-20T08:40:13;19.38;;;5.40;;
65477;SDS011;53678;39.642;22.430;2022-11-20T08:42:48;18.30;;;5.20;;
65477;SDS011;53678;39.642;22.430;2022-11-20T08:45:16;22.50;;;4.95;;
65477;SDS011;53678;39.642;22.430;2022-11-20T08:47:43;25.88;;;5.47;;
65477;SDS011;53678;39.642;22.430;2022-11-20T08:50:10;24.60;;;6.82;;
65477;SDS011;53678;39.642;22.430;2022-11-20T08:52:37;28.38;;;6.18;;
65477;SDS011;53678;39.642;22.430;2022-11-20T08:55:03;25.98;;;6.93;;
65477;SDS011;53678;39.642;22.430;2022-11-20T08:57:36;23.83;;;5.43;;
65477;SDS011;53678;39.642;22.430;2022-11-20T09:00:03;15.73;;;4.95;;
65477;SDS011;53678;39.642;22.430;2022-11-20T09:02:30;26.33;;;6.82;;
65477;SDS011;53678;39.642;22.430;2022-11-20T09:04:57;14.85;;;4.95;;
65477;SDS011;53678;39.642;22.430;2022-11-20T09:07:23;24.23;;;5.72;;
65477;SDS011;53678;39.642;22.430;2022-11-20T09:09:49;24.25;;;4.32;;
65477;SDS011;53678;39.642;22.430;2022-11-20T09:12:15;19.55;;;5.10;;
65477;SDS011;53678;39.642;22.430;2022-11-20T09:14:41;22.33;;;5.28;;
65477;SDS011;53678;39.642;22.430;2022-11-20T09:17:07;25.42;;;5.32;;
65477;SDS011;53678;39.642;22.430;2022-11-20T09:19:35;22.27;;;5.28;;
65477;SDS011;53678;39.642;22.430;2022-11-20T09:22:01;25.05;;;5.63;;
65477;SDS011;53678;39.642;22.430;2022-11-20T09:24:27;23.88;;;4.70;;
65477;SDS011;53678;39.642;22.430;2022-11-20T09:26:53;21.20;;;4.57;;
65477;SDS011;53678;39.642;22.430;2022-11-20T09:29:19;29.38;;;4.88;;
65477;SDS011;53678;39.642;22.430;2022-11-20T09:31:45;24.50;;;4.93;;
65477;SDS011;53678;39.642;22.430;2022-11-20T09:34:11;23.10;;;4.50;;
65477;SDS011;53678;39.642;22.430;2022-11-20T09:36:37;20.02;;;4.85;;
65477;SDS011;53678;39.642;22.430;2022-11-20T09:39:03;22.80;;;4.50;;
65477;SDS011;53678;39.642;22.430;2022-11-20T09:44:01;23.30;;;3.88;;
65477;SDS011;53678;39.642;22.430;2022-11-20T09:46:53;25.08;;;4.53;;
65477;SDS011;53678;39.642;22.430;2022-11-20T09:54:50;23.20;;;4.40;;
65477;SDS011;53678;39.642;22.430;2022-11-20T09:57:22;26.65;;;4.93;;
65477;SDS011;53678;39.642;22.430;2022-11-20T10:00:03;22.17;;;4.53;;
65477;SDS011;53678;39.642;22.430;2022-11-20T10:02:58;16.08;;;4.35;;
65477;SDS011;53678;39.642;22.430;2022-11-20T10:05:39;23.00;;;4.22;;
65477;SDS011;53678;39.642;22.430;2022-11-20T10:08:22;21.90;;;4.80;;
65477;SDS011;53678;39.642;22.430;2022-11-20T10:13:54;19.75;;;4.10;;
65477;SDS011;53678;39.642;22.430;2022-11-20T10:16:41;19.13;;;4.63;;
65477;SDS011;53678;39.642;22.430;2022-11-20T10:25:06;34.92;;;4.65;;
65477;SDS011;53678;39.642;22.430;2022-11-20T10:30:20;14.45;;;2.90;;
65477;SDS011;53678;39.642;22.430;2022-11-20T10:35:54;25.17;;;4.75;;
65477;SDS011;53678;39.642;22.430;2022-11-20T10:38:43;20.57;;;4.70;;
65477;SDS011;53678;39.642;22.430;2022-11-20T10:41:34;23.20;;;5.97;;
65477;SDS011;53678;39.642;22.430;2022-11-20T10:44:15;24.95;;;6.18;;
65477;SDS011;53678;39.642;22.430;2022-11-20T10:47:05;30.75;;;6.88;;
65477;SDS011;53678;39.642;22.430;2022-11-20T10:49:35;24.42;;;6.13;;
65477;SDS011;53678;39.642;22.430;2022-11-20T10:57:15;15.50;;;4.35;;
65477;SDS011;53678;39.642;22.430;2022-11-20T11:00:07;21.95;;;4.80;;
65477;SDS011;53678;39.642;22.430;2022-11-20T11:02:40;19.07;;;4.37;;
65477;SDS011;53678;39.642;22.430;2022-11-20T11:08:01;21.98;;;3.33;;
65477;SDS011;53678;39.642;22.430;2022-11-20T11:10:39;9.80;;;2.72;;
65477;SDS011;53678;39.642;22.430;2022-11-20T11:15:51;12.10;;;3.45;;
65477;SDS011;53678;39.642;22.430;2022-11-20T11:18:31;17.38;;;3.28;;
65477;SDS011;53678;39.642;22.430;2022-11-20T11:21:00;17.00;;;5.20;;
65477;SDS011;53678;39.642;22.430;2022-11-20T11:23:38;15.23;;;3.85;;
65477;SDS011;53678;39.642;22.430;2022-11-20T11:26:06;10.55;;;3.28;;
65477;SDS011;53678;39.642;22.430;2022-11-20T11:29:05;18.35;;;3.55;;
65477;SDS011;53678;39.642;22.430;2022-11-20T11:31:33;17.45;;;4.63;;
65477;SDS011;53678;39.642;22.430;2022-11-20T11:34:18;22.42;;;4.25;;
65477;SDS011;53678;39.642;22.430;2022-11-20T11:36:52;22.77;;;4.63;;
65477;SDS011;53678;39.642;22.430;2022-11-20T11:39:22;18.83;;;4.47;;
65477;SDS011;53678;39.642;22.430;2022-11-20T11:41:50;16.30;;;4.70;;
65477;SDS011;53678;39.642;22.430;2022-11-20T11:44:19;22.10;;;4.63;;
65477;SDS011;53678;39.642;22.430;2022-11-20T11:47:09;18.92;;;3.85;;
65477;SDS011;53678;39.642;22.430;2022-11-20T11:52:45;19.25;;;5.75;;
65477;SDS011;53678;39.642;22.430;2022-11-20T11:55:35;26.45;;;5.05;;
65477;SDS011;53678;39.642;22.430;2022-11-20T11:58:25;20.42;;;4.97;;
65477;SDS011;53678;39.642;22.430;2022-11-20T12:00:56;17.50;;;5.28;;
65477;SDS011;53678;39.642;22.430;2022-11-20T12:03:37;20.75;;;5.15;;
65477;SDS011;53678;39.642;22.430;2022-11-20T12:06:10;20.92;;;5.80;;
65477;SDS011;53678;39.642;22.430;2022-11-20T12:16:59;20.50;;;7.15;;
65477;SDS011;53678;39.642;22.430;2022-11-20T12:19:26;18.40;;;6.32;;
65477;SDS011;53678;39.642;22.430;2022-11-20T12:30:25;18.05;;;6.78;;
65477;SDS011;53678;39.642;22.430;2022-11-20T12:47:19;74.75;;;40.67;;
65477;SDS011;53678;39.642;22.430;2022-11-20T12:49:55;72.05;;;35.80;;
65477;SDS011;53678;39.642;22.430;2022-11-20T12:57:46;21.33;;;9.23;;
65477;SDS011;53678;39.642;22.430;2022-11-20T13:00:20;46.60;;;20.80;;
65477;SDS011;53678;39.642;22.430;2022-11-20T13:08:16;13.52;;;3.97;;
65477;SDS011;53678;39.642;22.430;2022-11-20T13:16:50;14.00;;;3.00;;
65477;SDS011;53678;39.642;22.430;2022-11-20T13:19:18;11.52;;;2.50;;
65477;SDS011;53678;39.642;22.430;2022-11-20T13:21:45;10.38;;;3.38;;
65477;SDS011;53678;39.642;22.430;2022-11-20T13:29:33;22.83;;;8.57;;
65477;SDS011;53678;39.642;22.430;2022-11-20T13:32:05;19.55;;;7.65;;
65477;SDS011;53678;39.642;22.430;2022-11-20T13:34:55;27.48;;;13.43;;
65477;SDS011;53678;39.642;22.430;2022-11-20T13:37:36;17.70;;;6.57;;
65477;SDS011;53678;39.642;22.430;2022-11-20T13:42:45;13.65;;;3.40;;
65477;SDS011;53678;39.642;22.430;2022-11-20T13:45:22;14.05;;;3.60;;
65477;SDS011;53678;39.642;22.430;2022-11-20T13:47:49;16.08;;;3.65;;
65477;SDS011;53678;39.642;22.430;2022-11-20T13:50:16;8.85;;;3.30;;
65477;SDS011;53678;39.642;22.430;2022-11-20T13:55:50;10.75;;;3.78;;
65477;SDS011;53678;39.642;22.430;2022-11-20T14:01:19;61.42;;;34.13;;
65477;SDS011;53678;39.642;22.430;2022-11-20T14:03:48;75.93;;;40.42;;
65477;SDS011;53678;39.642;22.430;2022-11-20T14:06:23;44.95;;;24.40;;
65477;SDS011;53678;39.642;22.430;2022-11-20T14:08:52;28.25;;;11.43;;
65477;SDS011;53678;39.642;22.430;2022-11-20T14:11:23;22.60;;;8.82;;
65477;SDS011;53678;39.642;22.430;2022-11-20T14:16:25;14.13;;;5.50;;
65477;SDS011;53678;39.642;22.430;2022-11-20T14:18:52;26.98;;;9.85;;
65477;SDS011;53678;39.642;22.430;2022-11-20T14:21:26;21.80;;;8.77;;
65477;SDS011;53678;39.642;22.430;2022-11-20T14:24:06;15.35;;;4.68;;
65477;SDS011;53678;39.642;22.430;2022-11-20T14:26:35;11.85;;;3.72;;
65477;SDS011;53678;39.642;22.430;2022-11-20T14:29:17;16.58;;;4.90;;
65477;SDS011;53678;39.642;22.430;2022-11-20T14:31:52;17.23;;;4.63;;
65477;SDS011;53678;39.642;22.430;2022-11-20T14:34:26;16.25;;;4.47;;
65477;SDS011;53678;39.642;22.430;2022-11-20T14:36:58;16.05;;;6.15;;
65477;SDS011;53678;39.642;22.430;2022-11-20T14:39:35;12.48;;;4.15;;
65477;SDS011;53678;39.642;22.430;2022-11-20T14:42:03;10.38;;;3.25;;
65477;SDS011;53678;39.642;22.430;2022-11-20T14:44:43;10.88;;;2.97;;
65477;SDS011;53678;39.642;22.430;2022-11-20T14:47:11;15.43;;;5.57;;
65477;SDS011;53678;39.642;22.430;2022-11-20T14:49:40;18.15;;;5.82;;
65477;SDS011;53678;39.642;22.430;2022-11-20T14:52:17;12.70;;;4.32;;
65477;SDS011;53678;39.642;22.430;2022-11-20T14:54:48;14.23;;;3.47;;
65477;SDS011;53678;39.642;22.430;2022-11-20T14:57:29;14.32;;;3.53;;
65477;SDS011;53678;39.642;22.430;2022-11-20T15:02:41;12.07;;;2.47;;
65477;SDS011;53678;39.642;22.430;2022-11-20T15:05:10;10.77;;;2.42;;
65477;SDS011;53678;39.642;22.430;2022-11-20T15:07:37;14.35;;;4.05;;
65477;SDS011;53678;39.642;22.430;2022-11-20T15:10:10;14.35;;;3.30;;
65477;SDS011;53678;39.642;22.430;2022-11-20T15:12:38;13.80;;;2.80;;
65477;SDS011;53678;39.642;22.430;2022-11-20T15:15:15;18.20;;;3.45;;
65477;SDS011;53678;39.642;22.430;2022-11-20T15:17:51;15.23;;;3.70;;
65477;SDS011;53678;39.642;22.430;2022-11-20T15:20:17;8.98;;;2.67;;
65477;SDS011;53678;39.642;22.430;2022-11-20T15:22:43;16.48;;;2.53;;
65477;SDS011;53678;39.642;22.430;2022-11-20T15:25:16;14.60;;;3.40;;
65477;SDS011;53678;39.642;22.430;2022-11-20T15:27:44;18.17;;;3.90;;
65477;SDS011;53678;39.642;22.430;2022-11-20T15:30:13;20.80;;;6.60;;
65477;SDS011;53678;39.642;22.430;2022-11-20T15:32:41;17.45;;;5.03;;
65477;SDS011;53678;39.642;22.430;2022-11-20T15:35:07;18.48;;;5.30;;
65477;SDS011;53678;39.642;22.430;2022-11-20T15:37:33;20.67;;;6.55;;
65477;SDS011;53678;39.642;22.430;2022-11-20T15:39:59;23.33;;;7.22;;
65477;SDS011;53678;39.642;22.430;2022-11-20T15:42:25;15.88;;;4.68;;
65477;SDS011;53678;39.642;22.430;2022-11-20T15:44:51;20.40;;;6.90;;
65477;SDS011;53678;39.642;22.430;2022-11-20T15:47:17;15.35;;;5.05;;
65477;SDS011;53678;39.642;22.430;2022-11-20T15:49:44;18.30;;;4.57;;
65477;SDS011;53678;39.642;22.430;2022-11-20T15:52:10;16.23;;;6.50;;
65477;SDS011;53678;39.642;22.430;2022-11-20T15:54:37;18.83;;;8.32;;
65477;SDS011;53678;39.642;22.430;2022-11-20T15:57:03;18.02;;;6.40;;
65477;SDS011;53678;39.642;22.430;2022-11-20T15:59:31;19.33;;;5.57;;
65477;SDS011;53678;39.642;22.430;2022-11-20T16:01:57;16.55;;;5.30;;
65477;SDS011;53678;39.642;22.430;2022-11-20T16:04:23;12.52;;;4.63;;
65477;SDS011;53678;39.642;22.430;2022-11-20T16:06:49;12.50;;;4.50;;
65477;SDS011;53678;39.642;22.430;2022-11-20T16:09:15;15.60;;;4.03;;
65477;SDS011;53678;39.642;22.430;2022-11-20T16:11:41;17.15;;;4.15;;
65477;SDS011;53678;39.642;22.430;2022-11-20T16:14:09;15.07;;;4.88;;
65477;SDS011;53678;39.642;22.430;2022-11-20T16:16:57;15.88;;;5.35;;
65477;SDS011;53678;39.642;22.430;2022-11-20T16:19:23;18.95;;;5.85;;
65477;SDS011;53678;39.642;22.430;2022-11-20T16:21:49;15.82;;;5.97;;
65477;SDS011;53678;39.642;22.430;2022-11-20T16:24:15;21.40;;;5.30;;